createdAt,value
2022-09-04T00:00:10.385Z,12.27
2022-09-04T00:02:56.257Z,12.63
2022-09-04T00:05:26.595Z,12.18
2022-09-04T00:08:00.404Z,12.43
2022-09-04T00:10:30.178Z,12.18
2022-09-04T00:13:05.349Z,12.43
2022-09-04T00:15:35.371Z,12.13
2022-09-04T00:18:05.955Z,12.07
2022-09-04T00:20:37.689Z,12.88
2022-09-04T00:23:07.989Z,12.15
2022-09-04T00:25:38.776Z,11.70
2022-09-04T00:28:10.082Z,11.57
2022-09-04T00:30:41.419Z,12.38
2022-09-04T00:33:13.963Z,11.70
2022-09-04T00:35:44.786Z,12.55
2022-09-04T00:38:15.379Z,12.35
2022-09-04T00:40:44.656Z,11.80
2022-09-04T00:43:25.764Z,11.77
2022-09-04T00:46:01.181Z,12.20
2022-09-04T00:48:58.145Z,12.27
2022-09-04T00:51:30.873Z,11.70
2022-09-04T00:54:13.188Z,12.03
2022-09-04T00:56:54.001Z,11.85
2022-09-04T00:59:31.689Z,12.38
2022-09-04T01:02:02.988Z,12.27
2022-09-04T01:04:37.344Z,12.30
2022-09-04T01:07:17.875Z,12.20
2022-09-04T01:09:56.976Z,12.45
2022-09-04T01:12:30.863Z,12.27
2022-09-04T01:15:14.236Z,13.02
2022-09-04T01:17:45.138Z,12.68
2022-09-04T01:20:15.738Z,13.17
2022-09-04T01:22:53.738Z,12.88
2022-09-04T01:25:48.684Z,12.55
2022-09-04T01:28:21.099Z,13.30
2022-09-04T01:30:51.893Z,13.45
2022-09-04T01:33:22.123Z,13.10
2022-09-04T01:35:53.730Z,13.73
2022-09-04T01:38:24.208Z,14.25
2022-09-04T01:40:54.548Z,13.70
2022-09-04T01:43:23.464Z,13.60
2022-09-04T01:46:06.027Z,13.97
2022-09-04T01:48:37.243Z,14.25
2022-09-04T01:51:06.916Z,13.45
2022-09-04T01:53:36.739Z,13.63
2022-09-04T01:56:11.253Z,13.38
2022-09-04T01:58:44.509Z,13.63
2022-09-04T02:01:21.143Z,13.27
2022-09-04T02:03:52.171Z,13.63
2022-09-04T02:06:23.143Z,13.25
2022-09-04T02:09:01.917Z,13.95
2022-09-04T02:11:30.192Z,13.53
2022-09-04T02:14:15.357Z,13.50
2022-09-04T02:16:46.977Z,13.35
2022-09-04T02:19:22.051Z,14.85
2022-09-04T02:21:52.193Z,13.75
2022-09-04T02:24:23.646Z,14.33
2022-09-04T02:26:53.768Z,13.85
2022-09-04T02:29:26.231Z,13.60
2022-09-04T02:31:57.040Z,13.70
2022-09-04T02:34:28.894Z,14.02
2022-09-04T02:36:59.639Z,13.57
2022-09-04T02:39:34.076Z,14.52
2022-09-04T02:42:05.198Z,14.73
2022-09-04T02:44:41.195Z,14.82
2022-09-04T02:47:13.367Z,14.05
2022-09-04T02:49:48.409Z,13.97
2022-09-04T02:52:25.745Z,14.10
2022-09-04T02:55:05.014Z,14.65
2022-09-04T02:57:39.563Z,14.32
2022-09-04T03:00:13.260Z,15.07
2022-09-04T03:02:46.125Z,13.67
2022-09-04T03:05:19.315Z,14.10
2022-09-04T03:07:50.384Z,13.82
2022-09-04T03:10:18.951Z,14.02
2022-09-04T03:12:48.772Z,14.20
2022-09-04T03:15:21.537Z,14.83
2022-09-04T03:17:54.975Z,14.68
2022-09-04T03:20:24.315Z,14.68
2022-09-04T03:22:55.424Z,14.23
2022-09-04T03:25:41.772Z,13.40
2022-09-04T03:28:10.769Z,13.57
2022-09-04T03:30:40.334Z,14.23
2022-09-04T03:33:09.724Z,14.18
2022-09-04T03:35:42.089Z,13.60
2022-09-04T03:38:15.415Z,13.25
2022-09-04T03:40:43.916Z,13.47
2022-09-04T03:43:16.660Z,13.50
2022-09-04T03:45:49.239Z,13.32
2022-09-04T03:48:27.541Z,13.55
2022-09-04T03:50:57.994Z,13.75
2022-09-04T03:53:29.092Z,13.83
2022-09-04T03:56:04.035Z,14.07
2022-09-04T03:58:39.478Z,14.73
2022-09-04T04:01:13.729Z,14.25
2022-09-04T04:03:51.493Z,14.23
2022-09-04T04:06:23.249Z,13.67
2022-09-04T04:09:00.068Z,14.27
2022-09-04T04:11:43.693Z,13.88
2022-09-04T04:14:29.290Z,13.23
2022-09-04T04:17:05.711Z,13.30
2022-09-04T04:19:51.080Z,13.97
2022-09-04T04:22:30.044Z,13.32
2022-09-04T04:25:25.203Z,13.25
2022-09-04T04:28:03.379Z,13.48
2022-09-04T04:30:37.921Z,14.15
2022-09-04T04:33:16.379Z,13.33
2022-09-04T04:35:49.631Z,14.15
2022-09-04T04:38:21.307Z,14.73
2022-09-04T04:40:55.544Z,14.65
2022-09-04T04:43:27.240Z,13.43
2022-09-04T04:45:58.373Z,13.17
2022-09-04T04:48:47.083Z,13.70
2022-09-04T04:51:24.347Z,13.43
2022-09-04T04:53:57.260Z,12.50
2022-09-04T04:56:27.421Z,12.73
2022-09-04T04:59:02.950Z,12.80
2022-09-04T05:01:43.251Z,12.23
2022-09-04T05:04:16.075Z,13.80
2022-09-04T05:06:50.278Z,12.80
2022-09-04T05:09:20.287Z,13.48
2022-09-04T05:11:52.146Z,13.23
2022-09-04T05:14:25.734Z,13.73
2022-09-04T05:16:56.355Z,14.38
2022-09-04T05:19:28.174Z,14.82
2022-09-04T05:22:00.989Z,14.48
2022-09-04T05:24:32.946Z,14.33
2022-09-04T05:27:03.969Z,14.93
2022-09-04T05:29:36.024Z,14.02
2022-09-04T05:32:10.631Z,14.18
2022-09-04T05:34:53.294Z,14.50
2022-09-04T05:37:27.000Z,15.23
2022-09-04T05:40:02.507Z,15.40
2022-09-04T05:42:52.932Z,15.13
2022-09-04T05:45:24.304Z,15.10
2022-09-04T05:47:58.811Z,14.15
2022-09-04T05:50:40.677Z,14.83
2022-09-04T05:53:14.360Z,14.88
2022-09-04T05:55:53.744Z,14.90
2022-09-04T05:58:26.972Z,15.30
2022-09-04T06:01:02.121Z,15.13
2022-09-04T06:03:56.464Z,15.23
2022-09-04T06:06:26.663Z,15.43
2022-09-04T06:09:03.632Z,15.48
2022-09-04T06:11:39.386Z,15.05
2022-09-04T06:14:13.117Z,15.52
2022-09-04T06:16:47.795Z,15.70
2022-09-04T06:19:28.384Z,16.00
2022-09-04T06:22:03.803Z,16.95
2022-09-04T06:24:45.715Z,16.35
2022-09-04T06:27:29.877Z,16.08
2022-09-04T06:30:04.408Z,17.97
2022-09-04T06:32:42.159Z,17.58
2022-09-04T06:35:22.859Z,18.23
2022-09-04T06:37:55.698Z,16.83
2022-09-04T06:40:31.507Z,17.27
2022-09-04T06:43:08.059Z,18.20
2022-09-04T06:45:42.168Z,18.33
2022-09-04T06:48:14.146Z,18.60
2022-09-04T06:50:47.025Z,19.02
2022-09-04T06:53:18.987Z,18.67
2022-09-04T06:55:54.239Z,18.43
2022-09-04T06:58:30.423Z,18.55
2022-09-04T07:01:02.584Z,20.60
2022-09-04T07:03:42.819Z,20.23
2022-09-04T07:06:12.223Z,19.92
2022-09-04T07:08:48.058Z,19.83
2022-09-04T07:11:21.310Z,19.77
2022-09-04T07:14:00.660Z,20.63
2022-09-04T07:16:33.720Z,21.25
2022-09-04T07:19:08.818Z,22.95
2022-09-04T07:21:41.701Z,24.80
2022-09-04T07:24:13.860Z,27.42
2022-09-04T07:26:48.553Z,26.15
2022-09-04T07:29:25.944Z,27.55
2022-09-04T07:31:57.433Z,27.83
2022-09-04T07:34:28.790Z,27.33
2022-09-04T07:36:59.165Z,26.85
2022-09-04T07:39:30.862Z,27.83
2022-09-04T07:42:03.298Z,28.52
2022-09-04T07:44:34.163Z,28.58
2022-09-04T07:47:12.236Z,28.40
2022-09-04T07:49:44.311Z,28.50
2022-09-04T07:52:18.066Z,28.67
2022-09-04T07:54:58.559Z,30.23
2022-09-04T07:57:35.475Z,32.13
2022-09-04T08:00:04.842Z,31.27
2022-09-04T08:02:37.732Z,32.63
2022-09-04T08:05:12.273Z,31.63
2022-09-04T08:07:49.923Z,32.20
2022-09-04T08:10:24.667Z,34.35
2022-09-04T08:12:57.739Z,36.87
2022-09-04T08:15:30.574Z,35.08
2022-09-04T08:18:12.308Z,35.35
2022-09-04T08:20:50.462Z,34.03
2022-09-04T08:23:31.484Z,35.22
2022-09-04T08:26:04.928Z,33.97
2022-09-04T08:28:46.513Z,33.55
2022-09-04T08:31:20.665Z,32.85
2022-09-04T08:34:08.878Z,33.65
2022-09-04T08:36:40.829Z,31.70
2022-09-04T08:39:10.560Z,31.90
2022-09-04T08:42:02.151Z,31.05
2022-09-04T08:44:53.400Z,28.83
2022-09-04T08:47:38.905Z,28.63
2022-09-04T08:50:23.759Z,26.80
2022-09-04T08:53:18.700Z,27.13
2022-09-04T08:55:55.383Z,25.95
2022-09-04T08:58:31.859Z,24.95
2022-09-04T09:01:15.444Z,25.00
2022-09-04T09:04:00.484Z,24.95
2022-09-04T09:06:40.929Z,21.93
2022-09-04T09:09:27.101Z,21.75
2022-09-04T09:12:10.335Z,21.58
2022-09-04T09:14:55.760Z,24.70
2022-09-04T09:17:34.813Z,22.92
2022-09-04T09:20:16.870Z,22.63
2022-09-04T09:23:09.808Z,21.92
2022-09-04T09:25:44.199Z,20.58
2022-09-04T09:28:35.658Z,18.63
2022-09-04T09:31:26.636Z,22.27
2022-09-04T09:34:11.232Z,20.87
2022-09-04T09:36:50.523Z,20.75
2022-09-04T09:39:27.865Z,20.02
2022-09-04T09:42:10.105Z,18.27
2022-09-04T09:44:55.225Z,14.73
2022-09-04T09:47:40.198Z,18.30
2022-09-04T09:50:20.612Z,15.57
2022-09-04T09:53:17.987Z,18.63
2022-09-04T09:56:15.543Z,17.95
2022-09-04T09:58:55.828Z,17.98
2022-09-04T10:01:34.395Z,18.17
2022-09-04T10:04:12.150Z,16.42
2022-09-04T10:06:58.987Z,16.48
2022-09-04T10:09:39.257Z,15.60
2022-09-04T10:12:25.158Z,15.30
2022-09-04T10:15:10.984Z,14.80
2022-09-04T10:17:53.301Z,11.85
2022-09-04T10:20:29.400Z,12.05
2022-09-04T10:23:11.672Z,11.70
2022-09-04T10:25:54.930Z,12.70
2022-09-04T10:28:45.901Z,12.30
2022-09-04T10:31:26.924Z,11.02
2022-09-04T10:34:14.998Z,11.35
2022-09-04T10:36:49.035Z,10.38
2022-09-04T10:39:39.697Z,9.93
2022-09-04T10:42:09.840Z,9.30
2022-09-04T10:44:45.100Z,8.82
2022-09-04T10:47:28.006Z,9.75
2022-09-04T10:50:08.292Z,9.50
2022-09-04T10:53:01.140Z,9.32
2022-09-04T10:55:42.400Z,11.10
2022-09-04T10:58:17.938Z,9.93
2022-09-04T11:00:53.377Z,10.27
2022-09-04T11:03:35.690Z,10.10
2022-09-04T11:06:18.335Z,11.00
2022-09-04T11:08:52.543Z,10.13
2022-09-04T11:11:43.438Z,10.98
2022-09-04T11:14:19.248Z,11.68
2022-09-04T11:16:57.332Z,12.52
2022-09-04T11:19:36.751Z,11.60
2022-09-04T11:22:22.691Z,11.83
2022-09-04T11:25:04.331Z,10.10
2022-09-04T11:27:50.027Z,10.77
2022-09-04T11:30:18.636Z,13.63
2022-09-04T11:33:00.527Z,11.50
2022-09-04T11:35:46.714Z,10.73
2022-09-04T11:38:18.295Z,12.00
2022-09-04T11:41:02.166Z,12.15
2022-09-04T11:43:36.826Z,10.50
2022-09-04T11:46:14.781Z,10.73
2022-09-04T11:48:57.643Z,10.50
2022-09-04T11:51:52.621Z,11.77
2022-09-04T11:54:28.855Z,11.30
2022-09-04T11:57:05.156Z,9.25
2022-09-04T11:59:43.838Z,11.20
2022-09-04T12:02:23.350Z,10.60
2022-09-04T12:05:01.810Z,11.38
2022-09-04T12:07:43.080Z,10.05
2022-09-04T12:10:28.768Z,11.00
2022-09-04T12:13:14.989Z,9.30
2022-09-04T12:15:54.268Z,9.90
2022-09-04T12:18:34.352Z,9.98
2022-09-04T12:21:19.353Z,10.18
2022-09-04T12:24:05.083Z,9.20
2022-09-04T12:26:51.472Z,9.23
2022-09-04T12:29:33.350Z,7.33
2022-09-04T12:32:08.906Z,6.95
2022-09-04T12:34:45.963Z,7.10
2022-09-04T12:37:45.348Z,7.10
2022-09-04T12:40:29.964Z,6.20
2022-09-04T12:43:00.667Z,6.93
2022-09-04T12:45:35.207Z,6.55
2022-09-04T12:48:11.085Z,6.10
2022-09-04T12:50:41.635Z,6.53
2022-09-04T12:53:25.685Z,6.00
2022-09-04T12:56:00.586Z,5.53
2022-09-04T12:58:33.739Z,6.03
2022-09-04T13:01:08.400Z,6.30
2022-09-04T13:03:38.269Z,5.90
2022-09-04T13:06:13.668Z,7.10
2022-09-04T13:08:48.139Z,6.60
2022-09-04T13:11:20.664Z,6.53
2022-09-04T13:13:53.267Z,6.03
2022-09-04T13:16:24.309Z,5.65
2022-09-04T13:19:00.101Z,5.75
2022-09-04T13:21:40.708Z,6.43
2022-09-04T13:24:15.963Z,5.32
2022-09-04T13:26:51.582Z,8.60
2022-09-04T13:29:25.311Z,9.43
2022-09-04T13:32:08.525Z,6.13
2022-09-04T13:34:42.198Z,5.70
2022-09-04T13:37:15.678Z,5.30
2022-09-04T13:39:50.412Z,6.43
2022-09-04T13:42:33.152Z,5.82
2022-09-04T13:45:11.979Z,4.57
2022-09-04T13:47:42.256Z,4.40
2022-09-04T13:50:16.117Z,4.68
2022-09-04T13:52:45.598Z,4.72
2022-09-04T13:55:17.901Z,9.80
2022-09-04T13:57:47.935Z,10.90
2022-09-04T14:00:17.038Z,10.60
2022-09-04T14:02:44.763Z,10.43
2022-09-04T14:05:14.210Z,11.85
2022-09-04T14:07:45.221Z,10.30
2022-09-04T14:10:14.927Z,8.65
2022-09-04T14:13:07.079Z,9.10
2022-09-04T14:15:41.525Z,9.13
2022-09-04T14:18:16.160Z,8.85
2022-09-04T14:20:51.426Z,8.85
2022-09-04T14:23:24.931Z,8.93
2022-09-04T14:25:57.040Z,8.67
2022-09-04T14:28:29.964Z,9.30
2022-09-04T14:31:01.900Z,8.30
2022-09-04T14:33:42.963Z,8.55
2022-09-04T14:36:16.026Z,8.57
2022-09-04T14:38:54.335Z,8.77
2022-09-04T14:41:32.822Z,8.70
2022-09-04T14:44:09.891Z,8.15
2022-09-04T14:46:46.452Z,7.20
2022-09-04T14:49:17.271Z,7.80
2022-09-04T14:51:46.157Z,6.97
2022-09-04T14:54:16.800Z,6.88
2022-09-04T14:56:46.061Z,7.53
2022-09-04T14:59:17.557Z,7.28
2022-09-04T15:02:03.801Z,6.93
2022-09-04T15:04:39.701Z,6.70
2022-09-04T15:07:19.859Z,7.80
2022-09-04T15:09:49.741Z,7.38
2022-09-04T15:12:26.855Z,7.63
2022-09-04T15:14:56.568Z,7.70
2022-09-04T15:17:28.474Z,7.80
2022-09-04T15:19:59.830Z,8.57
2022-09-04T15:22:30.610Z,8.27
2022-09-04T15:24:59.932Z,8.10
2022-09-04T15:27:32.216Z,7.82
2022-09-04T15:30:04.253Z,7.83
2022-09-04T15:32:36.575Z,8.35
2022-09-04T15:35:08.682Z,7.72
2022-09-04T15:37:36.421Z,8.00
2022-09-04T15:40:10.899Z,8.52
2022-09-04T15:42:44.614Z,7.73
2022-09-04T15:45:17.336Z,8.82
2022-09-04T15:47:55.884Z,8.25
2022-09-04T15:50:25.872Z,9.10
2022-09-04T15:52:57.464Z,9.70
2022-09-04T15:55:26.916Z,8.33
2022-09-04T15:57:59.718Z,8.57
2022-09-04T16:00:29.294Z,9.13
2022-09-04T16:03:01.228Z,8.82
2022-09-04T16:05:33.368Z,8.88
2022-09-04T16:08:04.136Z,8.50
2022-09-04T16:10:42.815Z,9.52
2022-09-04T16:13:21.611Z,8.32
2022-09-04T16:15:49.191Z,9.38
2022-09-04T16:18:20.453Z,9.02
2022-09-04T16:20:51.215Z,9.20
2022-09-04T16:23:19.766Z,8.75
2022-09-04T16:25:49.670Z,8.98
2022-09-04T16:28:25.333Z,8.60
2022-09-04T16:30:56.891Z,8.30
2022-09-04T16:33:28.724Z,8.43
2022-09-04T16:36:00.066Z,8.65
2022-09-04T16:38:31.784Z,8.65
2022-09-04T16:41:01.353Z,8.25
2022-09-04T16:43:32.030Z,8.27
2022-09-04T16:46:07.734Z,9.10
2022-09-04T16:48:40.326Z,9.02
2022-09-04T16:51:40.165Z,9.30
2022-09-04T16:54:05.163Z,9.38
2022-09-04T16:56:37.178Z,8.90
2022-09-04T16:59:12.064Z,8.87
2022-09-04T17:01:43.691Z,9.68
2022-09-04T17:04:19.693Z,9.20
2022-09-04T17:06:56.226Z,9.32
2022-09-04T17:09:27.374Z,8.25
2022-09-04T17:11:58.643Z,9.33
2022-09-04T17:14:30.394Z,9.20
2022-09-04T17:17:03.950Z,9.10
2022-09-04T17:19:44.042Z,10.57
2022-09-04T17:28:48.751Z,10.20
2022-09-04T17:29:00.617Z,10.35
2022-09-04T17:29:12.279Z,10.38
2022-09-04T17:31:36.186Z,10.90
2022-09-04T17:40:44.054Z,10.90
2022-09-04T17:40:56.470Z,11.48
2022-09-04T17:41:35.709Z,10.83
2022-09-04T17:42:42.150Z,12.00
2022-09-04T17:45:38.959Z,10.68
2022-09-04T17:48:19.494Z,11.40
2022-09-04T17:50:48.398Z,10.93
2022-09-04T17:53:34.135Z,11.80
2022-09-04T17:56:06.750Z,11.95
2022-09-04T17:58:37.731Z,11.45
2022-09-04T18:01:15.346Z,11.93
2022-09-04T18:04:19.807Z,11.63
2022-09-04T18:06:37.814Z,12.50
2022-09-04T18:09:10.989Z,12.07
2022-09-04T18:12:00.279Z,11.38
2022-09-04T18:14:34.641Z,10.48
2022-09-04T18:17:11.174Z,11.43
2022-09-04T18:19:45.352Z,11.17
2022-09-04T18:22:26.391Z,10.95
2022-09-04T18:25:15.982Z,10.45
2022-09-04T18:28:11.954Z,10.52
2022-09-04T18:37:11.023Z,10.70
2022-09-04T18:37:23.533Z,11.15
2022-09-04T18:37:24.420Z,11.13
2022-09-04T18:39:51.522Z,11.70
2022-09-04T18:47:00.312Z,12.07
2022-09-04T18:50:24.179Z,12.30
2022-09-04T18:50:28.382Z,14.63
2022-09-04T18:51:22.544Z,21.70
2022-09-04T18:53:51.992Z,20.52
2022-09-04T18:56:22.219Z,20.83
2022-09-04T18:59:00.351Z,20.13
2022-09-04T19:01:29.907Z,18.10
2022-09-04T19:03:58.436Z,17.40
2022-09-04T19:06:32.151Z,15.40
2022-09-04T19:09:01.767Z,13.70
2022-09-04T19:11:31.426Z,13.35
2022-09-04T19:14:10.147Z,12.68
2022-09-04T19:16:41.340Z,12.37
2022-09-04T19:19:17.485Z,12.40
2022-09-04T19:21:57.846Z,12.75
2022-09-04T19:24:34.426Z,12.43
2022-09-04T19:27:20.626Z,12.00
2022-09-04T19:30:03.530Z,12.90
2022-09-04T19:32:59.573Z,12.57
2022-09-04T19:35:32.179Z,12.43
2022-09-04T19:40:51.813Z,12.68
2022-09-04T19:46:00.511Z,12.80
2022-09-04T19:46:17.047Z,12.77
2022-09-04T19:46:46.580Z,12.38
2022-09-04T19:50:50.596Z,12.30
2022-09-04T19:53:30.345Z,13.45
2022-09-04T19:55:24.054Z,13.15
2022-09-04T19:57:45.806Z,14.27
2022-09-04T20:00:32.986Z,13.60
2022-09-04T20:03:29.962Z,14.02
2022-09-04T20:06:05.719Z,13.68
2022-09-04T20:08:51.695Z,13.80
2022-09-04T20:11:34.526Z,13.47
2022-09-04T20:14:13.487Z,13.27
2022-09-04T20:16:48.311Z,13.48
2022-09-04T20:19:28.275Z,14.85
2022-09-04T20:21:58.177Z,14.85
2022-09-04T20:24:28.019Z,14.60
2022-09-04T20:26:57.434Z,15.55
2022-09-04T20:29:26.777Z,14.30
2022-09-04T20:31:56.555Z,14.77
2022-09-04T20:34:39.435Z,14.73
2022-09-04T20:37:15.907Z,14.73
2022-09-04T20:39:48.829Z,15.23
2022-09-04T20:42:20.899Z,15.52
2022-09-04T20:46:58.472Z,15.63
2022-09-04T20:52:43.213Z,14.98
2022-09-04T20:52:53.682Z,15.27
2022-09-04T20:53:24.552Z,14.48
2022-09-04T20:55:59.960Z,15.27
2022-09-04T21:03:13.847Z,15.25
2022-09-04T21:03:24.386Z,15.18
2022-09-04T21:04:43.086Z,14.97
2022-09-04T21:07:22.578Z,14.82
2022-09-04T21:09:55.708Z,15.30
2022-09-04T21:12:29.480Z,16.67
2022-09-04T21:15:00.857Z,15.98
2022-09-04T21:17:46.184Z,16.33
2022-09-04T21:20:35.536Z,16.60
2022-09-04T21:23:36.155Z,17.05
2022-09-04T21:26:07.639Z,16.98
2022-09-04T21:28:48.462Z,17.63
2022-09-04T21:31:23.312Z,17.27
2022-09-04T21:33:59.478Z,18.40
2022-09-04T21:36:31.186Z,19.05
2022-09-04T21:39:18.953Z,18.85
2022-09-04T21:41:57.563Z,18.98
2022-09-04T21:44:41.938Z,19.60
2022-09-04T21:47:19.312Z,20.65
2022-09-04T21:50:14.461Z,20.42
2022-09-04T21:52:55.783Z,21.05
2022-09-04T21:59:11.581Z,19.58
2022-09-04T22:02:37.498Z,19.63
2022-09-04T22:02:42.252Z,18.73
2022-09-04T22:04:19.532Z,19.92
2022-09-04T22:08:20.452Z,19.70
2022-09-04T22:13:37.961Z,19.67
2022-09-04T22:13:39.968Z,20.03
2022-09-04T22:15:38.588Z,21.05
2022-09-04T22:18:24.637Z,20.05
2022-09-04T22:21:01.132Z,20.02
2022-09-04T22:23:41.184Z,20.95
2022-09-04T22:26:23.666Z,21.93
2022-09-04T22:28:56.664Z,21.42
2022-09-04T22:31:51.009Z,21.80
2022-09-04T22:34:34.928Z,21.30
2022-09-04T22:37:24.055Z,22.38
2022-09-04T22:40:05.789Z,20.10
2022-09-04T22:42:36.971Z,22.00
2022-09-04T22:45:14.164Z,21.52
2022-09-04T22:47:50.231Z,21.80
2022-09-04T22:50:49.837Z,21.55
2022-09-04T22:53:32.987Z,21.07
2022-09-04T22:56:24.409Z,20.85
2022-09-04T22:59:20.512Z,21.02
2022-09-04T23:02:01.346Z,20.30
2022-09-04T23:04:45.729Z,19.83
2022-09-04T23:13:42.132Z,19.43
2022-09-04T23:13:51.853Z,18.85
2022-09-04T23:14:05.298Z,19.42
2022-09-04T23:16:27.712Z,17.50
2022-09-04T23:24:52.111Z,17.05
2022-09-04T23:26:41.996Z,16.40
2022-09-04T23:26:47.009Z,17.47
2022-09-04T23:28:02.736Z,15.48
2022-09-04T23:30:52.972Z,14.25
2022-09-04T23:33:27.710Z,14.52
2022-09-04T23:36:16.754Z,13.90
2022-09-04T23:38:54.081Z,13.73
2022-09-04T23:41:26.547Z,13.07
2022-09-04T23:44:25.632Z,13.50
2022-09-04T23:47:02.493Z,12.68
2022-09-04T23:49:42.003Z,12.90
2022-09-04T23:52:15.931Z,13.23
2022-09-04T23:54:51.166Z,11.98
2022-09-04T23:57:26.474Z,11.98
2022-09-04T23:59:56.875Z,11.13
